createdAt,value
2016-07-21T00:00:11.937Z,0
2016-07-21T00:01:11.259Z,0
2016-07-21T00:02:11.352Z,0
2016-07-21T00:03:12.082Z,0
2016-07-21T00:04:10.721Z,0
2016-07-21T00:05:12.413Z,0
2016-07-21T00:06:12.306Z,0
2016-07-21T00:07:11.627Z,0
2016-07-21T00:08:12.356Z,0
2016-07-21T00:09:12.361Z,0
2016-07-21T00:10:12.478Z,0
2016-07-21T00:11:11.809Z,0
2016-07-21T00:12:11.836Z,0
2016-07-21T00:13:12.570Z,0
2016-07-21T00:14:11.943Z,0
2016-07-21T00:15:12.252Z,0
2016-07-21T00:16:12.017Z,0
2016-07-21T00:17:12.276Z,0
2016-07-21T00:18:12.830Z,0
2016-07-21T00:19:12.184Z,0
2016-07-21T00:20:12.316Z,0
2016-07-21T00:21:12.973Z,0
2016-07-21T00:22:12.340Z,0
2016-07-21T00:23:12.395Z,0
2016-07-21T00:24:12.456Z,0
2016-07-21T00:25:12.512Z,0
2016-07-21T00:26:12.523Z,0
2016-07-21T00:27:11.879Z,0
2016-07-21T00:28:13.342Z,0
2016-07-21T00:29:13.401Z,0
2016-07-21T00:30:13.601Z,0
2016-07-21T00:31:13.509Z,0
2016-07-21T00:32:12.848Z,0
2016-07-21T00:33:12.909Z,0
2016-07-21T00:34:12.297Z,0
2016-07-21T00:35:12.431Z,0
2016-07-21T00:36:13.781Z,0
2016-07-21T00:37:13.789Z,0
2016-07-21T00:38:13.861Z,0
2016-07-21T00:39:13.911Z,0
2016-07-21T00:40:14.260Z,0
2016-07-21T00:41:13.644Z,0
2016-07-21T00:42:13.400Z,0
2016-07-21T00:43:14.094Z,0
2016-07-21T00:44:13.450Z,0
2016-07-21T00:45:13.656Z,0
2016-07-21T00:46:14.280Z,0
2016-07-21T00:47:14.302Z,0
2016-07-21T00:48:14.411Z,0
2016-07-21T00:49:14.453Z,0
2016-07-21T00:50:13.964Z,0
2016-07-21T00:51:13.124Z,0
2016-07-21T00:52:14.620Z,0
2016-07-21T00:53:13.912Z,0
2016-07-21T00:54:13.971Z,0
2016-07-21T00:55:15.034Z,0
2016-07-21T00:56:14.064Z,0
2016-07-21T00:57:14.834Z,0
2016-07-21T00:58:13.493Z,0
2016-07-21T00:59:14.923Z,0
2016-07-21T01:00:14.390Z,0
2016-07-21T01:01:13.636Z,0
2016-07-21T01:02:14.374Z,0
2016-07-21T01:03:13.729Z,0
2016-07-21T01:04:15.160Z,0
2016-07-21T01:05:14.865Z,0
2016-07-21T01:06:14.565Z,0
2016-07-21T01:07:14.664Z,0
2016-07-21T01:08:15.359Z,0
2016-07-21T01:09:14.735Z,0
2016-07-21T01:10:14.359Z,0
2016-07-21T01:11:15.510Z,0
2016-07-21T01:12:15.611Z,0
2016-07-21T01:13:15.660Z,0
2016-07-21T01:14:14.982Z,0
2016-07-21T01:15:15.063Z,0
2016-07-21T01:16:15.087Z,0
2016-07-21T01:17:15.820Z,0
2016-07-21T01:18:15.895Z,0
2016-07-21T01:19:14.555Z,0
2016-07-21T01:20:15.359Z,0
2016-07-21T01:21:16.108Z,0
2016-07-21T01:22:15.419Z,0
2016-07-21T01:23:16.173Z,0
2016-07-21T01:24:16.230Z,0
2016-07-21T01:25:16.248Z,0
2016-07-21T01:26:15.604Z,0
2016-07-21T01:27:15.694Z,0
2016-07-21T01:28:16.425Z,0
2016-07-21T01:29:16.454Z,0
2016-07-21T01:30:15.826Z,0
2016-07-21T01:31:16.551Z,0
2016-07-21T01:32:15.907Z,0
2016-07-21T01:33:16.687Z,0
2016-07-21T01:34:16.731Z,0
2016-07-21T01:35:16.099Z,0
2016-07-21T01:36:16.133Z,0
2016-07-21T01:37:16.161Z,0
2016-07-21T01:38:16.917Z,0
2016-07-21T01:39:16.972Z,0
2016-07-21T01:40:16.356Z,0
2016-07-21T01:41:15.851Z,0
2016-07-21T01:42:17.157Z,0
2016-07-21T01:43:16.489Z,0
2016-07-21T01:44:16.545Z,0
2016-07-21T01:45:16.563Z,0
2016-07-21T01:46:17.371Z,0
2016-07-21T01:47:16.673Z,0
2016-07-21T01:48:17.455Z,0
2016-07-21T01:49:17.462Z,0
2016-07-21T01:50:17.525Z,0
2016-07-21T01:51:16.894Z,0
2016-07-21T01:52:17.660Z,0
2016-07-21T01:53:16.996Z,0
2016-07-21T01:54:17.753Z,0
2016-07-21T01:55:17.134Z,0
2016-07-21T01:56:17.835Z,0
2016-07-21T01:57:17.863Z,0
2016-07-21T01:58:18.006Z,0
2016-07-21T01:59:18.000Z,0
2016-07-21T02:00:17.354Z,0
2016-07-21T02:01:16.679Z,0
2016-07-21T02:02:18.171Z,0
2016-07-21T02:03:16.833Z,0
2016-07-21T02:04:18.267Z,0
2016-07-21T02:05:18.348Z,0
2016-07-21T02:06:16.986Z,0
2016-07-21T02:07:18.426Z,0
2016-07-21T02:08:17.751Z,0
2016-07-21T02:09:17.101Z,0
2016-07-21T02:10:17.861Z,0
2016-07-21T02:11:17.918Z,0
2016-07-21T02:12:17.953Z,0
2016-07-21T02:13:18.726Z,0
2016-07-21T02:14:18.066Z,0
2016-07-21T02:15:18.111Z,0
2016-07-21T02:16:18.896Z,0
2016-07-21T02:17:18.891Z,0
2016-07-21T02:18:18.306Z,0
2016-07-21T02:19:19.031Z,0
2016-07-21T02:20:19.047Z,0
2016-07-21T02:21:19.087Z,0
2016-07-21T02:22:18.521Z,0
2016-07-21T02:23:18.518Z,0
2016-07-21T02:24:18.585Z,0
2016-07-21T02:25:19.314Z,0
2016-07-21T02:26:18.697Z,0
2016-07-21T02:27:19.440Z,0
2016-07-21T02:28:18.763Z,0
2016-07-21T02:29:19.515Z,0
2016-07-21T02:30:19.589Z,0
2016-07-21T02:31:19.666Z,0
2016-07-21T02:32:19.003Z,0
2016-07-21T02:33:19.074Z,0
2016-07-21T02:34:18.385Z,0
2016-07-21T02:35:18.455Z,0
2016-07-21T02:36:19.906Z,0
2016-07-21T02:37:19.222Z,0
2016-07-21T02:38:20.006Z,0
2016-07-21T02:39:19.352Z,0
2016-07-21T02:40:18.713Z,0
2016-07-21T02:41:20.196Z,0
2016-07-21T02:42:20.194Z,0
2016-07-21T02:43:19.576Z,0
2016-07-21T02:44:19.579Z,0
2016-07-21T02:45:19.657Z,0
2016-07-21T02:46:20.363Z,0
2016-07-21T02:47:20.432Z,0
2016-07-21T02:48:19.800Z,0
2016-07-21T02:49:20.561Z,0
2016-07-21T02:50:19.901Z,0
2016-07-21T02:51:20.692Z,0
2016-07-21T02:52:20.698Z,0
2016-07-21T02:53:19.324Z,0
2016-07-21T02:54:20.096Z,0
2016-07-21T02:55:20.893Z,0
2016-07-21T02:56:20.880Z,0
2016-07-21T02:57:19.561Z,4
2016-07-21T02:58:19.615Z,4
2016-07-21T02:59:21.049Z,4
2016-07-21T03:00:21.107Z,0
2016-07-21T03:01:20.482Z,4
2016-07-21T03:02:20.529Z,4
2016-07-21T03:03:19.867Z,4
2016-07-21T03:04:20.610Z,4
2016-07-21T03:05:21.372Z,4
2016-07-21T03:06:21.451Z,4
2016-07-21T03:07:21.434Z,8
2016-07-21T03:08:21.531Z,8
2016-07-21T03:09:21.599Z,8
2016-07-21T03:10:20.914Z,8
2016-07-21T03:11:20.958Z,12
2016-07-21T03:12:21.019Z,16
2016-07-21T03:13:21.756Z,16
2016-07-21T03:14:21.797Z,20
2016-07-21T03:15:21.157Z,24
2016-07-21T03:16:21.938Z,28
2016-07-21T03:17:21.938Z,28
2016-07-21T03:18:22.056Z,32
2016-07-21T03:19:22.037Z,40
2016-07-21T03:20:21.431Z,48
2016-07-21T03:21:22.157Z,56
2016-07-21T03:22:22.261Z,60
2016-07-21T03:23:22.309Z,72
2016-07-21T03:24:22.314Z,80
2016-07-21T03:25:21.684Z,92
2016-07-21T03:26:21.752Z,108
2016-07-21T03:27:22.500Z,128
2016-07-21T03:28:21.829Z,144
2016-07-21T03:29:21.872Z,168
2016-07-21T03:30:22.597Z,192
2016-07-21T03:31:21.985Z,212
2016-07-21T03:32:22.693Z,240
2016-07-21T03:33:22.096Z,264
2016-07-21T03:34:22.806Z,296
2016-07-21T03:35:22.174Z,332
2016-07-21T03:36:22.920Z,368
2016-07-21T03:37:22.311Z,416
2016-07-21T03:38:22.311Z,468
2016-07-21T03:39:22.413Z,520
2016-07-21T03:40:23.128Z,580
2016-07-21T03:41:22.670Z,652
2016-07-21T03:42:23.261Z,728
2016-07-21T03:43:23.274Z,812
2016-07-21T03:44:22.638Z,900
2016-07-21T03:45:23.384Z,1000
2016-07-21T03:46:23.427Z,1104
2016-07-21T03:47:22.804Z,1216
2016-07-21T03:48:22.834Z,1352
2016-07-21T03:49:23.634Z,1488
2016-07-21T03:50:23.667Z,1584
2016-07-21T03:51:23.681Z,1644
2016-07-21T03:52:23.064Z,1704
2016-07-21T03:53:23.756Z,1748
2016-07-21T03:54:24.079Z,1772
2016-07-21T03:55:23.180Z,1776
2016-07-21T03:56:23.953Z,1792
2016-07-21T03:57:23.978Z,1820
2016-07-21T03:58:24.008Z,1860
2016-07-21T03:59:23.392Z,1916
2016-07-21T04:00:23.441Z,1968
2016-07-21T04:01:24.160Z,2012
2016-07-21T04:02:24.251Z,2080
2016-07-21T04:03:23.635Z,2156
2016-07-21T04:04:24.332Z,2256
2016-07-21T04:05:23.681Z,2388
2016-07-21T04:06:24.437Z,2532
2016-07-21T04:07:23.811Z,2648
2016-07-21T04:08:23.860Z,2808
2016-07-21T04:09:23.926Z,2996
2016-07-21T04:10:23.949Z,3196
2016-07-21T04:11:24.700Z,3416
2016-07-21T04:12:24.021Z,3640
2016-07-21T04:13:24.091Z,3920
2016-07-21T04:14:24.840Z,4268
2016-07-21T04:15:24.248Z,4608
2016-07-21T04:16:24.950Z,4968
2016-07-21T04:17:25.025Z,5256
2016-07-21T04:18:25.069Z,5448
2016-07-21T04:19:25.123Z,5612
2016-07-21T04:20:25.147Z,5664
2016-07-21T04:21:25.188Z,5548
2016-07-21T04:22:25.234Z,4940
2016-07-21T04:23:25.331Z,4144
2016-07-21T04:24:25.376Z,3680
2016-07-21T04:25:24.028Z,3424
2016-07-21T04:26:25.472Z,3156
2016-07-21T04:27:24.840Z,2896
2016-07-21T04:28:25.582Z,2632
2016-07-21T04:29:24.889Z,2376
2016-07-21T04:30:24.950Z,2076
2016-07-21T04:31:25.689Z,1900
2016-07-21T04:32:24.362Z,1820
2016-07-21T04:33:25.831Z,1732
2016-07-21T04:34:25.144Z,1680
2016-07-21T04:35:25.216Z,1664
2016-07-21T04:36:25.284Z,1680
2016-07-21T04:37:26.057Z,1764
2016-07-21T04:38:26.056Z,1932
2016-07-21T04:39:26.123Z,2188
2016-07-21T04:40:26.189Z,2556
2016-07-21T04:41:26.272Z,2992
2016-07-21T04:42:25.564Z,3408
2016-07-21T04:43:25.669Z,3696
2016-07-21T04:44:26.368Z,3788
2016-07-21T04:45:26.439Z,3720
2016-07-21T04:46:25.807Z,3568
2016-07-21T04:47:25.826Z,3424
2016-07-21T04:48:26.602Z,3336
2016-07-21T04:49:25.237Z,3420
2016-07-21T04:50:26.667Z,3648
2016-07-21T04:51:26.067Z,3992
2016-07-21T04:52:26.092Z,4312
2016-07-21T04:53:26.099Z,4532
2016-07-21T04:54:27.078Z,4748
2016-07-21T04:55:26.925Z,5108
2016-07-21T04:56:27.020Z,5704
2016-07-21T04:57:25.616Z,6464
2016-07-21T04:58:26.370Z,7484
2016-07-21T04:59:27.156Z,8592
2016-07-21T05:00:25.812Z,9452
2016-07-21T05:01:26.502Z,10024
2016-07-21T05:02:27.253Z,10116
2016-07-21T05:03:27.350Z,9616
2016-07-21T05:04:25.965Z,8964
2016-07-21T05:05:27.451Z,7664
2016-07-21T05:06:27.494Z,5292
2016-07-21T05:07:26.849Z,4224
2016-07-21T05:08:27.543Z,4288
2016-07-21T05:09:26.922Z,3772
2016-07-21T05:10:27.651Z,3968
2016-07-21T05:11:27.738Z,4408
2016-07-21T05:12:27.805Z,4500
2016-07-21T05:13:27.135Z,3532
2016-07-21T05:14:27.183Z,2396
2016-07-21T05:15:28.133Z,1704
2016-07-21T05:16:28.009Z,2076
2016-07-21T05:17:27.315Z,2308
2016-07-21T05:18:27.350Z,2536
2016-07-21T05:19:26.697Z,2364
2016-07-21T05:20:28.139Z,1936
2016-07-21T05:21:27.523Z,1972
2016-07-21T05:22:28.273Z,1748
2016-07-21T05:23:28.266Z,1232
2016-07-21T05:24:28.363Z,1180
2016-07-21T05:25:27.735Z,1416
2016-07-21T05:26:27.782Z,1488
2016-07-21T05:27:27.799Z,2444
2016-07-21T05:28:28.562Z,1864
2016-07-21T05:29:28.586Z,2260
2016-07-21T05:30:28.640Z,2460
2016-07-21T05:31:28.711Z,3392
2016-07-21T05:32:28.727Z,5036
2016-07-21T05:33:27.374Z,5316
2016-07-21T05:34:28.852Z,3600
2016-07-21T05:35:28.928Z,3568
2016-07-21T05:36:28.257Z,4852
2016-07-21T05:37:29.001Z,5584
2016-07-21T05:38:28.312Z,6452
2016-07-21T05:39:28.383Z,6712
2016-07-21T05:40:29.129Z,4832
2016-07-21T05:41:29.163Z,5324
2016-07-21T05:42:28.516Z,4328
2016-07-21T05:43:29.260Z,3776
2016-07-21T05:44:28.631Z,4252
2016-07-21T05:45:29.387Z,5440
2016-07-21T05:46:28.724Z,3780
2016-07-21T05:47:28.758Z,3824
2016-07-21T05:48:28.812Z,3108
2016-07-21T05:49:29.588Z,2736
2016-07-21T05:50:29.588Z,3024
2016-07-21T05:51:29.639Z,4896
2016-07-21T05:52:28.978Z,2704
2016-07-21T05:53:29.770Z,3612
2016-07-21T05:54:29.111Z,4676
2016-07-21T05:55:29.165Z,3564
2016-07-21T05:56:28.503Z,3308
2016-07-21T05:57:29.963Z,3256
2016-07-21T05:58:29.998Z,3104
2016-07-21T05:59:28.643Z,2952
2016-07-21T06:00:29.402Z,4720
2016-07-21T06:01:30.143Z,4008
2016-07-21T06:02:28.834Z,3000
2016-07-21T06:03:30.252Z,2820
2016-07-21T06:04:30.308Z,3108
2016-07-21T06:05:30.371Z,3212
2016-07-21T06:06:29.715Z,3764
2016-07-21T06:07:30.492Z,3700
2016-07-21T06:08:30.525Z,4524
2016-07-21T06:09:29.128Z,5692
2016-07-21T06:10:30.602Z,5248
2016-07-21T06:11:30.642Z,5480
2016-07-21T06:12:30.700Z,5852
2016-07-21T06:13:29.311Z,7108
2016-07-21T06:14:30.774Z,7352
2016-07-21T06:15:30.844Z,6376
2016-07-21T06:16:30.871Z,9436
2016-07-21T06:17:30.934Z,11288
2016-07-21T06:18:30.985Z,7540
2016-07-21T06:19:31.038Z,7160
2016-07-21T06:20:30.361Z,8952
2016-07-21T06:21:31.117Z,10724
2016-07-21T06:22:31.158Z,11132
2016-07-21T06:23:29.808Z,8112
2016-07-21T06:24:31.303Z,6248
2016-07-21T06:25:31.295Z,4868
2016-07-21T06:26:29.253Z,4824
2016-07-21T06:27:31.438Z,5888
2016-07-21T06:28:30.749Z,4384
2016-07-21T06:29:31.529Z,2796
2016-07-21T06:30:31.597Z,2484
2016-07-21T06:31:30.912Z,2336
2016-07-21T06:32:31.635Z,3308
2016-07-21T06:33:31.015Z,3708
2016-07-21T06:34:31.758Z,3916
